PTAAM SBSP-SBMT
Flight info
| Callsign | PTAAM |
|---|---|
| Flight time | 0h -5m |
| Altitude | 3500 |
| Route | DCT |
| Aircraft | B06/L-SDFGR/C |
Departure
| Time | 2026-05-01 15:03 |
|---|---|
| Airport | Congonhas–Deputado Freitas Nobre Airport (SBSP) |
Arrival
| Time | 2026-05-01 14:58 |
|---|---|
| Airport | Campo de Marte Airport (SBMT) |
| Time | Latitude | Longitude | Altitude | Speed | Heading |
|---|---|---|---|---|---|
| 2026-05-01 14:58 | -23.62733 | -46.65223 | 2667 ft | 0 kts | 239° |
| 2026-05-01 15:02 | -23.62728 | -46.65258 | 2673 ft | 9 kts | 325° |
| 2026-05-01 15:02 | -23.62663 | -46.65292 | 2674 ft | 18 kts | 336° |
| 2026-05-01 15:03 | -23.62445 | -46.65440 | 2763 ft | 54 kts | 326° |
| 2026-05-01 15:03 | -23.62016 | -46.65508 | 2893 ft | 67 kts | 354° |
| 2026-05-01 15:03 | -23.61536 | -46.65505 | 3073 ft | 72 kts | 359° |
| 2026-05-01 15:03 | -23.61073 | -46.65375 | 3272 ft | 65 kts | 29° |
| 2026-05-01 15:04 | -23.60607 | -46.65171 | 3372 ft | 76 kts | 20° |
| 2026-05-01 15:04 | -23.60079 | -46.65098 | 3489 ft | 78 kts | 8° |
| 2026-05-01 15:04 | -23.59510 | -46.64991 | 3522 ft | 85 kts | 15° |
| 2026-05-01 15:04 | -23.58943 | -46.64813 | 3592 ft | 83 kts | 19° |
| 2026-05-01 15:05 | -23.58397 | -46.64614 | 3663 ft | 82 kts | 18° |
| 2026-05-01 15:05 | -23.57842 | -46.64429 | 3723 ft | 83 kts | 17° |
| 2026-05-01 15:05 | -23.57295 | -46.64202 | 3775 ft | 85 kts | 18° |
| 2026-05-01 15:05 | -23.56701 | -46.64073 | 3827 ft | 86 kts | 10° |
| 2026-05-01 15:06 | -23.56140 | -46.63902 | 3922 ft | 82 kts | 17° |
| 2026-05-01 15:06 | -23.55607 | -46.63642 | 3958 ft | 85 kts | 24° |
| 2026-05-01 15:06 | -23.55060 | -46.63392 | 4001 ft | 84 kts | 20° |
| 2026-05-01 15:06 | -23.54512 | -46.63147 | 3945 ft | 82 kts | 18° |
| 2026-05-01 15:07 | -23.53996 | -46.62943 | 3890 ft | 80 kts | 14° |
| 2026-05-01 15:07 | -23.53411 | -46.62844 | 3754 ft | 84 kts | 352° |
| 2026-05-01 15:07 | -23.52864 | -46.63021 | 3685 ft | 82 kts | 340° |
| 2026-05-01 15:07 | -23.52367 | -46.63292 | 3645 ft | 81 kts | 322° |
| 2026-05-01 15:08 | -23.52021 | -46.63800 | 3530 ft | 89 kts | 291° |
| 2026-05-01 15:08 | -23.51872 | -46.64470 | 3407 ft | 92 kts | 281° |
| 2026-05-01 15:08 | -23.51731 | -46.65125 | 3304 ft | 87 kts | 283° |
| 2026-05-01 15:08 | -23.51594 | -46.65767 | 3160 ft | 90 kts | 287° |
| 2026-05-01 15:09 | -23.51180 | -46.66044 | 3041 ft | 72 kts | 18° |
| 2026-05-01 15:09 | -23.50967 | -46.65658 | 2980 ft | 66 kts | 81° |
| 2026-05-01 15:09 | -23.51027 | -46.65169 | 2888 ft | 63 kts | 89° |
| 2026-05-01 15:09 | -23.51133 | -46.64700 | 2752 ft | 60 kts | 91° |
| 2026-05-01 15:10 | -23.51156 | -46.64328 | 2663 ft | 38 kts | 89° |
| 2026-05-01 15:10 | -23.51177 | -46.63926 | 2425 ft | 15 kts | 154° |
| 2026-05-01 15:10 | -23.51262 | -46.63886 | 2380 ft | 7 kts | 191° |
| 2026-05-01 15:11 | -23.51320 | -46.63893 | 2390 ft | 11 kts | 143° |
| 2026-05-01 15:11 | -23.51322 | -46.63774 | 2419 ft | 11 kts | 15° |
| 2026-05-01 15:11 | -23.51287 | -46.63749 | 2390 ft | 3 kts | 122° |
| 2026-05-01 15:12 | -23.51300 | -46.63718 | 2379 ft | 5 kts | 167° |
| 2026-05-01 15:12 | -23.51306 | -46.63737 | 2390 ft | 2 kts | 1° |
| 2026-05-01 15:12 | -23.51288 | -46.63744 | 2379 ft | 2 kts | 351° |
| 2026-05-01 15:13 | -23.51286 | -46.63742 | 2377 ft | 0 kts | 350° |
| 2026-05-01 15:15 | -23.51288 | -46.63741 | 2377 ft | 1 kts | 96° |
| 2026-05-01 15:16 | -23.51286 | -46.63741 | 2377 ft | 2 kts | 110° |
| 2026-05-01 15:16 | -23.51283 | -46.63745 | 2377 ft | 0 kts | 173° |